Ocean Sky — WDG5144 — position and weather

sailwx.info

Track history (hours):
 
Tides and Currents Weather Stations Pressure Air Temp Water Temp Dewpoint Dewpoint Depression Visibility Wind Speed Wind Dir Waves Ship Positions

Ocean Sky

Owner: CROWLEY MARINE SERVICES, INC, SEATTLE, WA. More information available from US FCC via Universal Licensing System and Coast Guard Vessel Documentation Center.

Last reported at 2017-Nov-08 15:07 UTC. Time now 2017-Nov-19 12:36 UTC.
Position N 29°56' W 093°20'.
Warning: this ship's position is 10 days out of date.

Length 48 m; draft 6.7 m.

Type: Tug. MMSI: 366630000.

Date/timePositionNaut miles runAvg speedWind from/ knotsBaromVisibWave heightAir tempDewpointWater temp
2017-Nov-08 15:07N 29°56' W 093°20'1 9.4
2017-Nov-08 15:00N 29°57' W 093°20'4 8.2
2017-Nov-08 14:30N 30°01' W 093°20'4 8.8
2017-Nov-08 14:01N 30°06' W 093°20'4 8.2
2017-Nov-08 13:31N 30°10' W 093°19'4 7.8
2017-Nov-08 13:00N 30°12' W 093°16'1 1.5
2017-Nov-08 12:31N 30°13' W 093°16'0 0.0
2017-Nov-08 11:58N 30°13' W 093°16'0 0.0
2017-Nov-08 11:28N 30°13' W 093°16'0 0.0
2017-Nov-08 10:58N 30°13' W 093°16'0 0.0
2017-Nov-08 10:28N 30°13' W 093°16'0 0.0
2017-Nov-08 09:58N 30°13' W 093°16'0 0.0
2017-Nov-08 09:28N 30°13' W 093°16'0 0.0
2017-Nov-08 08:58N 30°13' W 093°16'0 0.0
2017-Nov-08 08:28N 30°13' W 093°16'0 0.0
2017-Nov-08 07:58N 30°13' W 093°16'0 0.0
2017-Nov-08 07:25N 30°13' W 093°16'0 0.0
2017-Nov-08 06:58N 30°13' W 093°16'0 0.0
2017-Nov-08 06:28N 30°13' W 093°16'0 0.0
2017-Nov-08 05:58N 30°13' W 093°16'0 0.0
2017-Nov-08 05:28N 30°13' W 093°16'0 0.0
2017-Nov-08 04:58N 30°13' W 093°16'0 0.0
2017-Nov-08 04:28N 30°13' W 093°16'0 0.0
2017-Nov-08 03:58N 30°13' W 093°16'0 0.0
2017-Nov-08 03:28N 30°13' W 093°16'0 0.0
2017-Nov-08 02:58N 30°13' W 093°16'0 0.0
2017-Nov-08 02:28N 30°13' W 093°16'0 0.0
2017-Nov-08 01:55N 30°13' W 093°16'0 0.0
2017-Nov-08 01:28N 30°13' W 093°16'0 0.0
2017-Nov-08 00:58N 30°13' W 093°16'0 0.0
2017-Nov-08 00:28N 30°13' W 093°16'0 0.0
2017-Nov-07 23:58N 30°13' W 093°16'0 0.0
2017-Nov-07 23:28N 30°13' W 093°16'0 0.0
2017-Nov-07 22:58N 30°13' W 093°16'0 0.0
2017-Nov-07 22:28N 30°13' W 093°16'0 0.0
2017-Nov-07 21:58N 30°13' W 093°16'0 0.0
2017-Nov-07 21:28N 30°13' W 093°16'0 0.0
2017-Nov-07 20:52N 30°13' W 093°16'0 0.0
2017-Nov-07 20:28N 30°13' W 093°16'0 0.0
2017-Nov-07 19:58N 30°13' W 093°16'0 0.0
2017-Nov-07 19:28N 30°13' W 093°16'0 0.0
2017-Nov-07 18:58N 30°13' W 093°16'0 0.0
2017-Nov-07 18:28N 30°13' W 093°16'0 0.0
2017-Nov-07 17:58N 30°13' W 093°16'0 0.0
2017-Nov-07 17:28N 30°13' W 093°16'0 0.0
2017-Nov-07 16:58N 30°13' W 093°16'0 0.0
2017-Nov-07 16:28N 30°13' W 093°16'0 0.0
2017-Nov-07 15:58N 30°13' W 093°16'0 0.0
2017-Nov-07 15:25N 30°13' W 093°16'0 0.0
2017-Nov-07 14:58N 30°13' W 093°16'0 0.0
2017-Nov-07 14:28N 30°13' W 093°16'0 0.0
2017-Nov-07 13:58N 30°13' W 093°16'0 0.0
2017-Nov-07 13:28N 30°13' W 093°16'0 0.0
2017-Nov-07 12:58N 30°13' W 093°16'0 0.0
2017-Nov-07 12:28N 30°13' W 093°16'0 0.0
2017-Nov-07 11:58N 30°13' W 093°16'0 0.0
2017-Nov-07 11:22N 30°13' W 093°16'0 0.0
2017-Nov-07 10:58N 30°13' W 093°16'0 0.0
2017-Nov-07 10:28N 30°13' W 093°16'0 0.0
2017-Nov-07 09:58N 30°13' W 093°16'0 0.0
2017-Nov-07 09:28N 30°13' W 093°16'0 0.0
2017-Nov-07 08:58N 30°13' W 093°16'0 0.0
2017-Nov-07 08:28N 30°13' W 093°16'0 0.0
2017-Nov-07 07:58N 30°13' W 093°16'0 0.0
2017-Nov-07 07:28N 30°13' W 093°16'0 0.0
2017-Nov-07 06:55N 30°13' W 093°16'0 0.0
2017-Nov-07 06:28N 30°13' W 093°16'0 0.0
2017-Nov-07 05:55N 30°13' W 093°16'0 0.0
2017-Nov-07 05:28N 30°13' W 093°16'0 0.0
2017-Nov-07 04:58N 30°13' W 093°16'0 0.0
2017-Nov-07 04:28N 30°13' W 093°16'0 0.0
2017-Nov-07 03:55N 30°13' W 093°16'0 0.0
2017-Nov-07 03:28N 30°13' W 093°16'0 0.0
2017-Nov-07 02:58N 30°13' W 093°16'0 0.0
2017-Nov-07 02:22N 30°13' W 093°16'0 0.0
2017-Nov-07 01:55N 30°13' W 093°16'0 0.0
2017-Nov-07 01:28N 30°13' W 093°16'0 0.0
2017-Nov-07 00:58N 30°13' W 093°16'0 0.0
2017-Nov-07 00:28N 30°13' W 093°16'0 0.0
2017-Nov-06 23:58N 30°13' W 093°16'0 0.0
2017-Nov-06 23:28N 30°13' W 093°16'0 0.0
2017-Nov-06 22:58N 30°13' W 093°16'0 0.0
2017-Nov-06 22:28N 30°13' W 093°16'0 0.0
2017-Nov-06 21:58N 30°13' W 093°16'0 0.0
2017-Nov-06 21:25N 30°13' W 093°16'0 0.0
2017-Nov-06 20:58N 30°13' W 093°16'0 0.0
2017-Nov-06 20:28N 30°13' W 093°16'0 0.0
2017-Nov-06 02:28N 30°13' W 093°16'0 0.0
2017-Nov-06 01:58N 30°13' W 093°16'0 0.0
2017-Nov-06 01:28N 30°13' W 093°16'0 0.0
2017-Nov-06 00:58N 30°13' W 093°16'0 0.0
2017-Nov-06 00:28N 30°13' W 093°16'0 0.0
2017-Nov-05 23:58N 30°13' W 093°16'0 0.0
2017-Nov-05 23:28N 30°13' W 093°16'0 0.0
2017-Nov-05 22:55N 30°13' W 093°16'0 0.0
2017-Nov-05 22:25N 30°13' W 093°16'0 0.0
2017-Nov-05 21:58N 30°13' W 093°16'0 0.0
2017-Nov-05 21:25N 30°13' W 093°16'0 0.0
2017-Nov-05 20:58N 30°13' W 093°16'0 0.0
2017-Nov-05 20:28N 30°13' W 093°16'0 0.0
2017-Nov-05 19:55N 30°13' W 093°16'0 0.0
2017-Nov-05 19:28N 30°13' W 093°16'0 0.0
2017-Nov-05 18:58N 30°13' W 093°16'0 0.0
2017-Nov-05 18:28N 30°13' W 093°16'0 0.0
2017-Nov-05 17:58N 30°13' W 093°16'0 0.0
2017-Nov-05 17:28N 30°13' W 093°16'0 0.0
2017-Nov-05 16:58N 30°13' W 093°16'0 0.0
2017-Nov-05 16:28N 30°13' W 093°16'0 0.0
2017-Nov-05 15:58N 30°13' W 093°16'0 0.0
2017-Nov-05 15:28N 30°13' W 093°16'0 0.0
2017-Nov-05 14:58N 30°13' W 093°16'0 0.0
2017-Nov-05 14:25N 30°13' W 093°16'0 0.0
2017-Nov-05 13:58N 30°13' W 093°16'0 0.0
2017-Nov-05 13:25N 30°13' W 093°16'0 0.0
2017-Nov-05 12:58N 30°13' W 093°16'0 0.0
2017-Nov-05 12:28N 30°13' W 093°16'0 0.0
2017-Nov-05 11:58N 30°13' W 093°16'0 0.0
2017-Nov-05 11:28N 30°13' W 093°16'0 0.0
2017-Nov-05 10:58N 30°13' W 093°16'0 0.0
2017-Nov-05 10:28N 30°13' W 093°16'0 0.0
2017-Nov-05 09:58N 30°13' W 093°16'0 0.0
2017-Nov-05 09:28N 30°13' W 093°16'0 0.0
2017-Nov-05 08:58N 30°13' W 093°16'0 0.0
2017-Nov-05 08:28N 30°13' W 093°16'0 0.0
2017-Nov-05 07:58N 30°13' W 093°16'0 0.0
2017-Nov-05 07:28N 30°13' W 093°16'0 0.0
2017-Nov-05 06:58N 30°13' W 093°16'0 0.0
2017-Nov-05 06:19N 30°13' W 093°16'0 0.0
2017-Nov-05 05:58N 30°13' W 093°16'0 0.0
2017-Nov-05 05:28N 30°13' W 093°16'0 0.0
2017-Nov-05 04:55N 30°13' W 093°16'0 0.0
2017-Nov-05 04:28N 30°13' W 093°16'0 0.0
2017-Nov-05 03:58N 30°13' W 093°16'0 0.0
2017-Nov-05 03:28N 30°13' W 093°16'0 0.0
2017-Nov-05 02:58N 30°13' W 093°16'0 0.0
2017-Nov-05 02:28N 30°13' W 093°16'0 0.0
2017-Nov-05 01:58N 30°13' W 093°16'0 0.0
2017-Nov-05 01:28N 30°13' W 093°16'0 0.0
2017-Nov-05 00:58N 30°13' W 093°16'0 0.0
2017-Nov-05 00:28N 30°13' W 093°16'0 0.0
2017-Nov-04 23:58N 30°13' W 093°16'0 0.0
2017-Nov-04 23:25N 30°13' W 093°16'0 0.0
2017-Nov-04 22:58N 30°13' W 093°16'0 0.0
2017-Nov-04 22:25N 30°13' W 093°16'0 0.0
2017-Nov-04 21:55N 30°13' W 093°16'0 0.0
2017-Nov-04 21:28N 30°13' W 093°16'0 0.0
2017-Nov-04 20:58N 30°13' W 093°16'0 0.0
2017-Nov-04 20:28N 30°13' W 093°16'0 0.0
2017-Nov-04 19:58N 30°13' W 093°16'0 0.0
2017-Nov-04 19:16N 30°13' W 093°16'0 0.0
2017-Nov-04 18:58N 30°13' W 093°16'0 0.0
2017-Nov-04 18:28N 30°13' W 093°16'0 0.0
2017-Nov-04 17:58N 30°13' W 093°16'0 0.0
2017-Nov-04 17:28N 30°13' W 093°16'0 0.0
2017-Nov-04 16:58N 30°13' W 093°16'0 0.0
2017-Nov-04 16:28N 30°13' W 093°16'0 0.0
2017-Nov-04 15:58N 30°13' W 093°16'0 0.0
2017-Nov-04 15:28N 30°13' W 093°16'0 0.0
2017-Nov-04 14:58N 30°13' W 093°16'0 0.0
2017-Nov-04 14:28N 30°13' W 093°16'0 0.0
2017-Nov-04 13:58N 30°13' W 093°16'0 0.0
2017-Nov-04 13:28N 30°13' W 093°16'0 0.0
2017-Nov-04 12:58N 30°13' W 093°16'0 0.0
2017-Nov-04 12:28N 30°13' W 093°16'0 0.0
2017-Nov-04 11:58N 30°13' W 093°16'0 0.0
2017-Nov-04 11:28N 30°13' W 093°16'0 0.0
2017-Nov-04 10:58N 30°13' W 093°16'0 0.0
2017-Nov-04 10:28N 30°13' W 093°16'0 0.0
2017-Nov-04 09:58N 30°13' W 093°16'0 0.0
2017-Nov-04 09:28N 30°13' W 093°16'0 0.0
2017-Nov-04 08:58N 30°13' W 093°16'0 0.0
2017-Nov-04 08:28N 30°13' W 093°16'0 0.0
2017-Nov-04 07:58N 30°13' W 093°16'0 0.0
2017-Nov-04 07:28N 30°13' W 093°16'0 0.0
2017-Nov-04 06:58N 30°13' W 093°16'0 0.0
2017-Nov-04 06:28N 30°13' W 093°16'0 0.0
2017-Nov-04 05:58N 30°13' W 093°16'0 0.0
2017-Nov-04 05:28N 30°13' W 093°16'0 0.0
2017-Nov-04 04:58N 30°13' W 093°16'0 0.0
2017-Nov-04 04:28N 30°13' W 093°16'0 0.0
2017-Nov-04 03:58N 30°13' W 093°16'0 0.0
2017-Nov-04 03:28N 30°13' W 093°16'0 0.0
2017-Nov-04 02:58N 30°13' W 093°16'0 0.0
2017-Nov-04 02:28N 30°13' W 093°16'0 0.0
2017-Nov-04 01:58N 30°13' W 093°16'0 0.0
2017-Nov-04 01:28N 30°13' W 093°16'0 0.0
2017-Nov-04 00:58N 30°13' W 093°16'0 0.0
2017-Nov-04 00:28N 30°13' W 093°16'0 0.0
2017-Nov-03 23:58N 30°13' W 093°16'0 0.0
2017-Nov-03 23:28N 30°13' W 093°16'0 0.0
2017-Nov-03 22:58N 30°13' W 093°16'0 0.0
2017-Nov-03 22:28N 30°13' W 093°16'0 0.0
2017-Nov-03 21:58N 30°13' W 093°16'0 0.0
2017-Nov-03 21:28N 30°13' W 093°16'0 0.0
2017-Nov-03 20:58N 30°13' W 093°16'0 0.0
2017-Nov-03 20:28N 30°13' W 093°16'0 0.0
2017-Nov-03 19:58N 30°13' W 093°16'0 0.0
2017-Nov-03 19:28N 30°13' W 093°16'0 0.0
2017-Nov-03 18:58N 30°13' W 093°16'0 0.0
2017-Nov-03 18:28N 30°13' W 093°16'0 0.0
2017-Nov-03 17:58N 30°13' W 093°16'0 0.0
2017-Nov-03 17:28N 30°13' W 093°16'0 0.0
2017-Nov-03 16:55N 30°13' W 093°16'0 0.0
2017-Nov-03 16:28N 30°13' W 093°16'0 0.0
2017-Nov-03 15:58N 30°13' W 093°16'0 0.0
2017-Nov-03 15:28N 30°13' W 093°16'0 0.0
2017-Nov-03 14:58N 30°13' W 093°16'0 0.0
2017-Nov-03 14:28N 30°13' W 093°16'0 0.0
2017-Nov-03 13:58N 30°13' W 093°16'0 0.0
2017-Nov-03 13:28N 30°13' W 093°16'0 0.0
2017-Nov-03 12:58N 30°13' W 093°16'0 0.0
2017-Nov-03 12:28N 30°13' W 093°16'0 0.0
2017-Nov-03 11:58N 30°13' W 093°16'0 0.0
2017-Nov-03 11:28N 30°13' W 093°16'0 0.0
2017-Nov-03 10:58N 30°13' W 093°16'0 0.0
2017-Nov-03 10:28N 30°13' W 093°16'0 0.0
2017-Nov-03 09:55N 30°13' W 093°16'0 0.0
2017-Nov-03 09:28N 30°13' W 093°16'0 0.0
2017-Nov-03 08:58N 30°13' W 093°16'0 0.0
2017-Nov-03 08:28N 30°13' W 093°16'0 0.0
2017-Nov-03 07:58N 30°13' W 093°16'0 0.0
2017-Nov-03 07:28N 30°13' W 093°16'0 0.0
2017-Nov-03 06:58N 30°13' W 093°16'0 0.0
2017-Nov-03 06:28N 30°13' W 093°16'0 0.0
2017-Nov-03 05:58N 30°13' W 093°16'0 0.0
2017-Nov-03 05:28N 30°13' W 093°16'0 0.0
2017-Nov-03 04:58N 30°13' W 093°16'0 0.0
2017-Nov-03 04:28N 30°13' W 093°16'0 0.0
2017-Nov-03 03:58N 30°13' W 093°16'0 0.0
2017-Nov-03 03:28N 30°13' W 093°16'0 0.0
2017-Nov-03 02:58N 30°13' W 093°16'0 0.0
2017-Nov-03 02:28N 30°13' W 093°16'0 0.0
2017-Nov-03 01:55N 30°13' W 093°16'0 0.0
2017-Nov-03 01:28N 30°13' W 093°16'0 0.0
2017-Nov-03 00:55N 30°13' W 093°16'0 0.0
2017-Nov-03 00:28N 30°13' W 093°16'0 0.0
2017-Nov-02 23:58N 30°13' W 093°16'0 0.0
2017-Nov-02 23:28N 30°13' W 093°16'0 0.0
2017-Nov-02 22:58N 30°13' W 093°16'0 0.0
2017-Nov-02 22:28N 30°13' W 093°16'0 0.0
2017-Nov-02 21:58N 30°13' W 093°16'0 0.0
2017-Nov-02 21:28N 30°13' W 093°16'0 0.0
2017-Nov-02 20:58N 30°13' W 093°16'0 0.0
2017-Nov-02 20:28N 30°13' W 093°16'0 0.0
2017-Nov-02 19:58N 30°13' W 093°16'0 0.0
2017-Nov-02 19:28N 30°13' W 093°16'0 0.0
2017-Nov-02 18:58N 30°13' W 093°16'0 0.0
2017-Nov-02 18:28N 30°13' W 093°16'0 0.0
2017-Nov-02 17:55N 30°13' W 093°16'0 0.0
2017-Nov-02 17:28N 30°13' W 093°16'0 0.0
2017-Nov-02 16:58N 30°13' W 093°16'0 0.0
2017-Nov-02 16:28N 30°13' W 093°16'0 0.0
2017-Nov-02 15:58N 30°13' W 093°16'0 0.0
2017-Nov-02 15:28N 30°13' W 093°16'0 0.0
2017-Nov-02 14:58N 30°13' W 093°16'0 0.0
2017-Nov-02 14:25N 30°13' W 093°16'0 0.0
2017-Nov-02 13:58N 30°13' W 093°16'0 0.0
2017-Nov-02 13:28N 30°13' W 093°16'0 0.0
2017-Nov-02 12:58N 30°13' W 093°16'0 0.0
2017-Nov-02 12:28N 30°13' W 093°16'0 0.0
2017-Nov-02 11:58N 30°13' W 093°16'0 0.0
2017-Nov-02 11:28N 30°13' W 093°16'0 0.0
2017-Nov-02 10:55N 30°13' W 093°16'0 0.0
2017-Nov-02 10:28N 30°13' W 093°16'0 0.0
2017-Nov-02 09:58N 30°13' W 093°16'0 0.0
2017-Nov-02 09:28N 30°13' W 093°16'0 0.0
2017-Nov-02 08:58N 30°13' W 093°16'0 0.0
2017-Nov-02 08:28N 30°13' W 093°16'0 0.0
2017-Nov-02 07:58N 30°13' W 093°16'0 0.0
2017-Nov-02 07:28N 30°13' W 093°16'0 0.0
2017-Nov-02 06:58N 30°13' W 093°16'0 0.0
2017-Nov-02 06:28N 30°13' W 093°16'0 0.0
2017-Nov-02 05:58N 30°13' W 093°16'0 0.0
2017-Nov-02 05:28N 30°13' W 093°16'0 0.0
2017-Nov-02 04:58N 30°13' W 093°16'0 0.0
2017-Nov-02 04:28N 30°13' W 093°16'0 0.0
2017-Nov-02 03:58N 30°13' W 093°16'0 0.0
2017-Nov-02 03:28N 30°13' W 093°16'0 0.0
2017-Nov-02 02:58N 30°13' W 093°16'0 0.0
2017-Nov-02 02:28N 30°13' W 093°16'0 0.0
2017-Nov-02 01:58N 30°13' W 093°16'0 0.0
2017-Nov-02 01:28N 30°13' W 093°16'0 0.0
2017-Nov-02 00:58N 30°13' W 093°16'0 0.0
2017-Nov-02 00:28N 30°13' W 093°16'0 0.0
2017-Nov-01 23:58N 30°13' W 093°16'0 0.0
2017-Nov-01 23:28N 30°13' W 093°16'0 0.0
2017-Nov-01 22:58N 30°13' W 093°16'0 0.0
2017-Nov-01 22:28N 30°13' W 093°16'0 0.0
2017-Nov-01 21:58N 30°13' W 093°16'0 0.0
2017-Nov-01 21:28N 30°13' W 093°16'0 0.0
2017-Nov-01 20:55N 30°13' W 093°16'0 0.0
2017-Nov-01 20:28N 30°13' W 093°16'0 0.0
2017-Nov-01 19:58N 30°13' W 093°16'0 0.0
2017-Nov-01 19:28N 30°13' W 093°16'0 0.0
2017-Nov-01 18:58N 30°13' W 093°16'0 0.0
2017-Nov-01 18:28N 30°13' W 093°16'0 0.0
2017-Nov-01 01:58N 30°13' W 093°16'0 0.0
2017-Nov-01 01:28N 30°13' W 093°16'0 0.0
2017-Nov-01 00:58N 30°13' W 093°16'0 0.0
2017-Nov-01 00:28N 30°13' W 093°16'0 0.0
2017-Oct-31 23:58N 30°13' W 093°16'0 0.0
2017-Oct-31 23:25N 30°13' W 093°16'0 0.0
2017-Oct-31 22:58N 30°13' W 093°16'0 0.0
2017-Oct-31 22:28N 30°13' W 093°16'0 0.0
2017-Oct-31 21:58N 30°13' W 093°16'0 0.0
2017-Oct-31 21:28N 30°13' W 093°16'0 0.0
2017-Oct-31 20:58N 30°13' W 093°16'0 0.0
2017-Oct-31 20:28N 30°13' W 093°16'0 0.0
2017-Oct-31 19:58N 30°13' W 093°16'0 0.0
2017-Oct-31 19:28N 30°13' W 093°16'0 0.0
2017-Oct-31 18:58N 30°13' W 093°16'0 0.0
2017-Oct-31 18:28N 30°13' W 093°16'0 0.0
2017-Oct-31 17:58N 30°13' W 093°16'0 0.0
2017-Oct-31 17:28N 30°13' W 093°16'0 0.0
2017-Oct-31 16:58N 30°13' W 093°16'0 0.0
2017-Oct-31 16:28N 30°13' W 093°16'0 0.0
2017-Oct-31 15:58N 30°13' W 093°16'0 0.0
2017-Oct-31 15:28N 30°13' W 093°16'0 0.0
2017-Oct-31 14:58N 30°13' W 093°16'0 0.0
2017-Oct-31 14:28N 30°13' W 093°16'0 0.0
2017-Oct-31 13:58N 30°13' W 093°16'0 0.0
2017-Oct-31 13:28N 30°13' W 093°16'0 0.0
2017-Oct-31 12:58N 30°13' W 093°16'0 0.0
2017-Oct-31 12:28N 30°13' W 093°16'0 0.0
2017-Oct-31 11:58N 30°13' W 093°16'0 0.0
2017-Oct-31 11:28N 30°13' W 093°16'0 0.0
2017-Oct-31 10:58N 30°13' W 093°16'0 0.0
2017-Oct-31 10:28N 30°13' W 093°16'0 0.0
2017-Oct-31 09:58N 30°13' W 093°16'0 0.0
2017-Oct-31 09:22N 30°13' W 093°16'0 0.0
2017-Oct-31 08:58N 30°13' W 093°16'0 0.0
2017-Oct-31 08:28N 30°13' W 093°16'0 0.0
2017-Oct-31 07:52N 30°13' W 093°16'0 0.0
2017-Oct-31 07:28N 30°13' W 093°16'0 0.0
2017-Oct-31 06:58N 30°13' W 093°16'0 0.0
2017-Oct-31 06:28N 30°13' W 093°16'0 0.0
2017-Oct-31 05:58N 30°13' W 093°16'0 0.0
2017-Oct-31 05:28N 30°13' W 093°16'0 0.0
2017-Oct-31 04:58N 30°13' W 093°16'0 0.0
2017-Oct-31 04:28N 30°13' W 093°16'0 0.0
2017-Oct-31 03:58N 30°13' W 093°16'0 0.0
2017-Oct-31 03:28N 30°13' W 093°16'0 0.0
2017-Oct-31 02:58N 30°13' W 093°16'0 0.0
2017-Oct-31 02:22N 30°13' W 093°16'0 0.0
2017-Oct-31 01:55N 30°13' W 093°16'0 0.0
2017-Oct-31 01:28N 30°13' W 093°16'0 0.0
2017-Oct-31 00:58N 30°13' W 093°16'0 0.0
2017-Oct-31 00:28N 30°13' W 093°16'0 0.0
2017-Oct-30 23:58N 30°13' W 093°16'0 0.0
2017-Oct-30 23:28N 30°13' W 093°16'0 0.0
2017-Oct-30 22:58N 30°13' W 093°16'0 0.0
2017-Oct-30 22:28N 30°13' W 093°16'0 0.0
2017-Oct-30 21:58N 30°13' W 093°16'0 0.0
2017-Oct-30 21:28N 30°13' W 093°16'0 0.0
2017-Oct-30 20:58N 30°13' W 093°16'0 0.0
2017-Oct-30 20:28N 30°13' W 093°16'0 0.0
2017-Oct-30 19:58N 30°13' W 093°16'0 0.0
2017-Oct-30 19:25N 30°13' W 093°16'0 0.0
2017-Oct-30 18:58N 30°13' W 093°16'0 0.0
2017-Oct-30 18:28N 30°13' W 093°16'0 0.0
2017-Oct-30 17:58N 30°13' W 093°16'0 0.0
2017-Oct-30 17:28N 30°13' W 093°16'0 0.0
2017-Oct-30 16:55N 30°13' W 093°16'0 0.0
2017-Oct-30 16:28N 30°13' W 093°16'0 0.0
2017-Oct-30 15:58N 30°13' W 093°16'0 0.0
2017-Oct-30 15:28N 30°13' W 093°16'0 0.0
2017-Oct-30 14:58N 30°13' W 093°16'0 0.0
2017-Oct-30 14:25N 30°13' W 093°16'0 0.0
2017-Oct-30 13:25N 30°13' W 093°16'0 0.0
2017-Oct-30 12:58N 30°13' W 093°16'0 0.0
2017-Oct-30 12:25N 30°13' W 093°16'0 0.0
2017-Oct-30 11:58N 30°13' W 093°16'0 0.0
2017-Oct-30 11:25N 30°13' W 093°16'0 0.0
2017-Oct-30 10:58N 30°13' W 093°16'0 0.0
2017-Oct-30 10:28N 30°13' W 093°16'0 0.0
2017-Oct-30 09:58N 30°13' W 093°16'0 0.0
2017-Oct-30 09:25N 30°13' W 093°16'0 0.0
2017-Oct-30 08:58N 30°13' W 093°16'0 0.0
2017-Oct-30 08:28N 30°13' W 093°16'0 0.0
2017-Oct-30 07:55N 30°13' W 093°16'0 0.0
2017-Oct-30 07:28N 30°13' W 093°16'0 0.0
2017-Oct-30 06:58N 30°13' W 093°16'0 0.0
2017-Oct-30 06:28N 30°13' W 093°16'0 0.0
2017-Oct-30 05:58N 30°13' W 093°16'0 0.0
2017-Oct-30 05:28N 30°13' W 093°16'0 0.0
2017-Oct-30 04:58N 30°13' W 093°16'0 0.0
2017-Oct-30 04:28N 30°13' W 093°16'0 0.0
2017-Oct-30 03:58N 30°13' W 093°16'0 0.0
2017-Oct-30 03:28N 30°13' W 093°16'0 0.0
2017-Oct-30 02:58N 30°13' W 093°16'0 0.0
2017-Oct-30 02:28N 30°13' W 093°16'0 0.0
2017-Oct-30 01:58N 30°13' W 093°16'0 0.0
2017-Oct-30 01:28N 30°13' W 093°16'0 0.0
2017-Oct-30 00:58N 30°13' W 093°16'0 0.0
2017-Oct-30 00:28N 30°13' W 093°16'0 0.0
2017-Oct-29 23:58N 30°13' W 093°16'0 0.0
2017-Oct-29 23:28N 30°13' W 093°16'0 0.0
2017-Oct-29 22:58N 30°13' W 093°16'0 0.0
2017-Oct-29 22:28N 30°13' W 093°16'0 0.0
2017-Oct-29 21:58N 30°13' W 093°16'0 0.0
2017-Oct-29 21:25N 30°13' W 093°16'0 0.0
2017-Oct-29 20:58N 30°13' W 093°16'0 0.0
2017-Oct-29 20:28N 30°13' W 093°16'0 0.0
2017-Oct-29 19:58N 30°13' W 093°16'0 0.0
2017-Oct-29 19:28N 30°13' W 093°16'0 0.0
2017-Oct-29 18:58N 30°13' W 093°16'0 0.0
2017-Oct-29 18:28N 30°13' W 093°16'0 0.0
2017-Oct-29 17:58N 30°13' W 093°16'0 0.0
2017-Oct-29 17:25N 30°13' W 093°16'0 0.0
2017-Oct-29 16:58N 30°13' W 093°16'0 0.0
2017-Oct-29 16:28N 30°13' W 093°16'0 0.0
2017-Oct-29 15:58N 30°13' W 093°16'0 0.0
2017-Oct-29 15:28N 30°13' W 093°16'  
Track history (hours):
 
Tides and Currents Weather Stations Pressure Air Temp Water Temp Dewpoint Dewpoint Depression Visibility Wind Speed Wind Dir Waves Ship Positions

Ocean Sky

Owner: CROWLEY MARINE SERVICES, INC, SEATTLE, WA. More information available from US FCC via Universal Licensing System and Coast Guard Vessel Documentation Center.

Last reported at 2017-Nov-08 15:07 UTC. Time now 2017-Nov-19 12:36 UTC.
Position N 29°56' W 093°20'.
Warning: this ship's position is 10 days out of date.

Length 48 m; draft 6.7 m.

Type: Tug. MMSI: 366630000.

Date/timePositionNaut miles runAvg speedWind from/ knotsBaromVisibWave heightAir tempDewpointWater temp
2017-Nov-08 15:07N 29°56' W 093°20'1 9.4
2017-Nov-08 15:00N 29°57' W 093°20'4 8.2
2017-Nov-08 14:30N 30°01' W 093°20'4 8.8
2017-Nov-08 14:01N 30°06' W 093°20'4 8.2
2017-Nov-08 13:31N 30°10' W 093°19'4 7.8
2017-Nov-08 13:00N 30°12' W 093°16'1 1.5
2017-Nov-08 12:31N 30°13' W 093°16'0 0.0
2017-Nov-08 11:58N 30°13' W 093°16'0 0.0
2017-Nov-08 11:28N 30°13' W 093°16'0 0.0
2017-Nov-08 10:58N 30°13' W 093°16'0 0.0
2017-Nov-08 10:28N 30°13' W 093°16'0 0.0
2017-Nov-08 09:58N 30°13' W 093°16'0 0.0
2017-Nov-08 09:28N 30°13' W 093°16'0 0.0
2017-Nov-08 08:58N 30°13' W 093°16'0 0.0
2017-Nov-08 08:28N 30°13' W 093°16'0 0.0
2017-Nov-08 07:58N 30°13' W 093°16'0 0.0
2017-Nov-08 07:25N 30°13' W 093°16'0 0.0
2017-Nov-08 06:58N 30°13' W 093°16'0 0.0
2017-Nov-08 06:28N 30°13' W 093°16'0 0.0
2017-Nov-08 05:58N 30°13' W 093°16'0 0.0
2017-Nov-08 05:28N 30°13' W 093°16'0 0.0
2017-Nov-08 04:58N 30°13' W 093°16'0 0.0
2017-Nov-08 04:28N 30°13' W 093°16'0 0.0
2017-Nov-08 03:58N 30°13' W 093°16'0 0.0
2017-Nov-08 03:28N 30°13' W 093°16'0 0.0
2017-Nov-08 02:58N 30°13' W 093°16'0 0.0
2017-Nov-08 02:28N 30°13' W 093°16'0 0.0
2017-Nov-08 01:55N 30°13' W 093°16'0 0.0
2017-Nov-08 01:28N 30°13' W 093°16'0 0.0
2017-Nov-08 00:58N 30°13' W 093°16'0 0.0
2017-Nov-08 00:28N 30°13' W 093°16'0 0.0
2017-Nov-07 23:58N 30°13' W 093°16'0 0.0
2017-Nov-07 23:28N 30°13' W 093°16'0 0.0
2017-Nov-07 22:58N 30°13' W 093°16'0 0.0
2017-Nov-07 22:28N 30°13' W 093°16'0 0.0
2017-Nov-07 21:58N 30°13' W 093°16'0 0.0
2017-Nov-07 21:28N 30°13' W 093°16'0 0.0
2017-Nov-07 20:52N 30°13' W 093°16'0 0.0
2017-Nov-07 20:28N 30°13' W 093°16'0 0.0
2017-Nov-07 19:58N 30°13' W 093°16'0 0.0
2017-Nov-07 19:28N 30°13' W 093°16'0 0.0
2017-Nov-07 18:58N 30°13' W 093°16'0 0.0
2017-Nov-07 18:28N 30°13' W 093°16'0 0.0
2017-Nov-07 17:58N 30°13' W 093°16'0 0.0
2017-Nov-07 17:28N 30°13' W 093°16'0 0.0
2017-Nov-07 16:58N 30°13' W 093°16'0 0.0
2017-Nov-07 16:28N 30°13' W 093°16'0 0.0
2017-Nov-07 15:58N 30°13' W 093°16'0 0.0
2017-Nov-07 15:25N 30°13' W 093°16'0 0.0
2017-Nov-07 14:58N 30°13' W 093°16'0 0.0
2017-Nov-07 14:28N 30°13' W 093°16'0 0.0
2017-Nov-07 13:58N 30°13' W 093°16'0 0.0
2017-Nov-07 13:28N 30°13' W 093°16'0 0.0
2017-Nov-07 12:58N 30°13' W 093°16'0 0.0
2017-Nov-07 12:28N 30°13' W 093°16'0 0.0
2017-Nov-07 11:58N 30°13' W 093°16'0 0.0
2017-Nov-07 11:22N 30°13' W 093°16'0 0.0
2017-Nov-07 10:58N 30°13' W 093°16'0 0.0
2017-Nov-07 10:28N 30°13' W 093°16'0 0.0
2017-Nov-07 09:58N 30°13' W 093°16'0 0.0
2017-Nov-07 09:28N 30°13' W 093°16'0 0.0
2017-Nov-07 08:58N 30°13' W 093°16'0 0.0
2017-Nov-07 08:28N 30°13' W 093°16'0 0.0
2017-Nov-07 07:58N 30°13' W 093°16'0 0.0
2017-Nov-07 07:28N 30°13' W 093°16'0 0.0
2017-Nov-07 06:55N 30°13' W 093°16'0 0.0
2017-Nov-07 06:28N 30°13' W 093°16'0 0.0
2017-Nov-07 05:55N 30°13' W 093°16'0 0.0
2017-Nov-07 05:28N 30°13' W 093°16'0 0.0
2017-Nov-07 04:58N 30°13' W 093°16'0 0.0
2017-Nov-07 04:28N 30°13' W 093°16'0 0.0
2017-Nov-07 03:55N 30°13' W 093°16'0 0.0
2017-Nov-07 03:28N 30°13' W 093°16'0 0.0
2017-Nov-07 02:58N 30°13' W 093°16'0 0.0
2017-Nov-07 02:22N 30°13' W 093°16'0 0.0
2017-Nov-07 01:55N 30°13' W 093°16'0 0.0
2017-Nov-07 01:28N 30°13' W 093°16'0 0.0
2017-Nov-07 00:58N 30°13' W 093°16'0 0.0
2017-Nov-07 00:28N 30°13' W 093°16'0 0.0
2017-Nov-06 23:58N 30°13' W 093°16'0 0.0
2017-Nov-06 23:28N 30°13' W 093°16'0 0.0
2017-Nov-06 22:58N 30°13' W 093°16'0 0.0
2017-Nov-06 22:28N 30°13' W 093°16'0 0.0
2017-Nov-06 21:58N 30°13' W 093°16'0 0.0
2017-Nov-06 21:25N 30°13' W 093°16'0 0.0
2017-Nov-06 20:58N 30°13' W 093°16'0 0.0
2017-Nov-06 20:28N 30°13' W 093°16'0 0.0
2017-Nov-06 02:28N 30°13' W 093°16'0 0.0
2017-Nov-06 01:58N 30°13' W 093°16'0 0.0
2017-Nov-06 01:28N 30°13' W 093°16'0 0.0
2017-Nov-06 00:58N 30°13' W 093°16'0 0.0
2017-Nov-06 00:28N 30°13' W 093°16'0 0.0
2017-Nov-05 23:58N 30°13' W 093°16'0 0.0
2017-Nov-05 23:28N 30°13' W 093°16'0 0.0
2017-Nov-05 22:55N 30°13' W 093°16'0 0.0
2017-Nov-05 22:25N 30°13' W 093°16'0 0.0
2017-Nov-05 21:58N 30°13' W 093°16'0 0.0
2017-Nov-05 21:25N 30°13' W 093°16'0 0.0
2017-Nov-05 20:58N 30°13' W 093°16'0 0.0
2017-Nov-05 20:28N 30°13' W 093°16'0 0.0
2017-Nov-05 19:55N 30°13' W 093°16'0 0.0
2017-Nov-05 19:28N 30°13' W 093°16'0 0.0
2017-Nov-05 18:58N 30°13' W 093°16'0 0.0
2017-Nov-05 18:28N 30°13' W 093°16'0 0.0
2017-Nov-05 17:58N 30°13' W 093°16'0 0.0
2017-Nov-05 17:28N 30°13' W 093°16'0 0.0
2017-Nov-05 16:58N 30°13' W 093°16'0 0.0
2017-Nov-05 16:28N 30°13' W 093°16'0 0.0
2017-Nov-05 15:58N 30°13' W 093°16'0 0.0
2017-Nov-05 15:28N 30°13' W 093°16'0 0.0
2017-Nov-05 14:58N 30°13' W 093°16'0 0.0
2017-Nov-05 14:25N 30°13' W 093°16'0 0.0
2017-Nov-05 13:58N 30°13' W 093°16'0 0.0
2017-Nov-05 13:25N 30°13' W 093°16'0 0.0
2017-Nov-05 12:58N 30°13' W 093°16'0 0.0
2017-Nov-05 12:28N 30°13' W 093°16'0 0.0
2017-Nov-05 11:58N 30°13' W 093°16'0 0.0
2017-Nov-05 11:28N 30°13' W 093°16'0 0.0
2017-Nov-05 10:58N 30°13' W 093°16'0 0.0
2017-Nov-05 10:28N 30°13' W 093°16'0 0.0
2017-Nov-05 09:58N 30°13' W 093°16'0 0.0
2017-Nov-05 09:28N 30°13' W 093°16'0 0.0
2017-Nov-05 08:58N 30°13' W 093°16'0 0.0
2017-Nov-05 08:28N 30°13' W 093°16'0 0.0
2017-Nov-05 07:58N 30°13' W 093°16'0 0.0
2017-Nov-05 07:28N 30°13' W 093°16'0 0.0
2017-Nov-05 06:58N 30°13' W 093°16'0 0.0
2017-Nov-05 06:19N 30°13' W 093°16'0 0.0
2017-Nov-05 05:58N 30°13' W 093°16'0 0.0
2017-Nov-05 05:28N 30°13' W 093°16'0 0.0
2017-Nov-05 04:55N 30°13' W 093°16'0 0.0
2017-Nov-05 04:28N 30°13' W 093°16'0 0.0
2017-Nov-05 03:58N 30°13' W 093°16'0 0.0
2017-Nov-05 03:28N 30°13' W 093°16'0 0.0
2017-Nov-05 02:58N 30°13' W 093°16'0 0.0
2017-Nov-05 02:28N 30°13' W 093°16'0 0.0
2017-Nov-05 01:58N 30°13' W 093°16'0 0.0
2017-Nov-05 01:28N 30°13' W 093°16'0 0.0
2017-Nov-05 00:58N 30°13' W 093°16'0 0.0
2017-Nov-05 00:28N 30°13' W 093°16'0 0.0
2017-Nov-04 23:58N 30°13' W 093°16'0 0.0
2017-Nov-04 23:25N 30°13' W 093°16'0 0.0
2017-Nov-04 22:58N 30°13' W 093°16'0 0.0
2017-Nov-04 22:25N 30°13' W 093°16'0 0.0
2017-Nov-04 21:55N 30°13' W 093°16'0 0.0
2017-Nov-04 21:28N 30°13' W 093°16'0 0.0
2017-Nov-04 20:58N 30°13' W 093°16'0 0.0
2017-Nov-04 20:28N 30°13' W 093°16'0 0.0
2017-Nov-04 19:58N 30°13' W 093°16'0 0.0
2017-Nov-04 19:16N 30°13' W 093°16'0 0.0
2017-Nov-04 18:58N 30°13' W 093°16'0 0.0
2017-Nov-04 18:28N 30°13' W 093°16'0 0.0
2017-Nov-04 17:58N 30°13' W 093°16'0 0.0
2017-Nov-04 17:28N 30°13' W 093°16'0 0.0
2017-Nov-04 16:58N 30°13' W 093°16'0 0.0
2017-Nov-04 16:28N 30°13' W 093°16'0 0.0
2017-Nov-04 15:58N 30°13' W 093°16'0 0.0
2017-Nov-04 15:28N 30°13' W 093°16'0 0.0
2017-Nov-04 14:58N 30°13' W 093°16'0 0.0
2017-Nov-04 14:28N 30°13' W 093°16'0 0.0
2017-Nov-04 13:58N 30°13' W 093°16'0 0.0
2017-Nov-04 13:28N 30°13' W 093°16'0 0.0
2017-Nov-04 12:58N 30°13' W 093°16'0 0.0
2017-Nov-04 12:28N 30°13' W 093°16'0 0.0
2017-Nov-04 11:58N 30°13' W 093°16'0 0.0
2017-Nov-04 11:28N 30°13' W 093°16'0 0.0
2017-Nov-04 10:58N 30°13' W 093°16'0 0.0
2017-Nov-04 10:28N 30°13' W 093°16'0 0.0
2017-Nov-04 09:58N 30°13' W 093°16'0 0.0
2017-Nov-04 09:28N 30°13' W 093°16'0 0.0
2017-Nov-04 08:58N 30°13' W 093°16'0 0.0
2017-Nov-04 08:28N 30°13' W 093°16'0 0.0
2017-Nov-04 07:58N 30°13' W 093°16'0 0.0
2017-Nov-04 07:28N 30°13' W 093°16'0 0.0
2017-Nov-04 06:58N 30°13' W 093°16'0 0.0
2017-Nov-04 06:28N 30°13' W 093°16'0 0.0
2017-Nov-04 05:58N 30°13' W 093°16'0 0.0
2017-Nov-04 05:28N 30°13' W 093°16'0 0.0
2017-Nov-04 04:58N 30°13' W 093°16'0 0.0
2017-Nov-04 04:28N 30°13' W 093°16'0 0.0
2017-Nov-04 03:58N 30°13' W 093°16'0 0.0
2017-Nov-04 03:28N 30°13' W 093°16'0 0.0
2017-Nov-04 02:58N 30°13' W 093°16'0 0.0
2017-Nov-04 02:28N 30°13' W 093°16'0 0.0
2017-Nov-04 01:58N 30°13' W 093°16'0 0.0
2017-Nov-04 01:28N 30°13' W 093°16'0 0.0
2017-Nov-04 00:58N 30°13' W 093°16'0 0.0
2017-Nov-04 00:28N 30°13' W 093°16'0 0.0
2017-Nov-03 23:58N 30°13' W 093°16'0 0.0
2017-Nov-03 23:28N 30°13' W 093°16'0 0.0
2017-Nov-03 22:58N 30°13' W 093°16'0 0.0
2017-Nov-03 22:28N 30°13' W 093°16'0 0.0
2017-Nov-03 21:58N 30°13' W 093°16'0 0.0
2017-Nov-03 21:28N 30°13' W 093°16'0 0.0
2017-Nov-03 20:58N 30°13' W 093°16'0 0.0
2017-Nov-03 20:28N 30°13' W 093°16'0 0.0
2017-Nov-03 19:58N 30°13' W 093°16'0 0.0
2017-Nov-03 19:28N 30°13' W 093°16'0 0.0
2017-Nov-03 18:58N 30°13' W 093°16'0 0.0
2017-Nov-03 18:28N 30°13' W 093°16'0 0.0
2017-Nov-03 17:58N 30°13' W 093°16'0 0.0
2017-Nov-03 17:28N 30°13' W 093°16'0 0.0
2017-Nov-03 16:55N 30°13' W 093°16'0 0.0
2017-Nov-03 16:28N 30°13' W 093°16'0 0.0
2017-Nov-03 15:58N 30°13' W 093°16'0 0.0
2017-Nov-03 15:28N 30°13' W 093°16'0 0.0
2017-Nov-03 14:58N 30°13' W 093°16'0 0.0
2017-Nov-03 14:28N 30°13' W 093°16'0 0.0
2017-Nov-03 13:58N 30°13' W 093°16'0 0.0
2017-Nov-03 13:28N 30°13' W 093°16'0 0.0
2017-Nov-03 12:58N 30°13' W 093°16'0 0.0
2017-Nov-03 12:28N 30°13' W 093°16'0 0.0
2017-Nov-03 11:58N 30°13' W 093°16'0 0.0
2017-Nov-03 11:28N 30°13' W 093°16'0 0.0
2017-Nov-03 10:58N 30°13' W 093°16'0 0.0
2017-Nov-03 10:28N 30°13' W 093°16'0 0.0
2017-Nov-03 09:55N 30°13' W 093°16'0 0.0
2017-Nov-03 09:28N 30°13' W 093°16'0 0.0
2017-Nov-03 08:58N 30°13' W 093°16'0 0.0
2017-Nov-03 08:28N 30°13' W 093°16'0 0.0
2017-Nov-03 07:58N 30°13' W 093°16'0 0.0
2017-Nov-03 07:28N 30°13' W 093°16'0 0.0
2017-Nov-03 06:58N 30°13' W 093°16'0 0.0
2017-Nov-03 06:28N 30°13' W 093°16'0 0.0
2017-Nov-03 05:58N 30°13' W 093°16'0 0.0
2017-Nov-03 05:28N 30°13' W 093°16'0 0.0
2017-Nov-03 04:58N 30°13' W 093°16'0 0.0
2017-Nov-03 04:28N 30°13' W 093°16'0 0.0
2017-Nov-03 03:58N 30°13' W 093°16'0 0.0
2017-Nov-03 03:28N 30°13' W 093°16'0 0.0
2017-Nov-03 02:58N 30°13' W 093°16'0 0.0
2017-Nov-03 02:28N 30°13' W 093°16'0 0.0
2017-Nov-03 01:55N 30°13' W 093°16'0 0.0
2017-Nov-03 01:28N 30°13' W 093°16'0 0.0
2017-Nov-03 00:55N 30°13' W 093°16'0 0.0
2017-Nov-03 00:28N 30°13' W 093°16'0 0.0
2017-Nov-02 23:58N 30°13' W 093°16'0 0.0
2017-Nov-02 23:28N 30°13' W 093°16'0 0.0
2017-Nov-02 22:58N 30°13' W 093°16'0 0.0
2017-Nov-02 22:28N 30°13' W 093°16'0 0.0
2017-Nov-02 21:58N 30°13' W 093°16'0 0.0
2017-Nov-02 21:28N 30°13' W 093°16'0 0.0
2017-Nov-02 20:58N 30°13' W 093°16'0 0.0
2017-Nov-02 20:28N 30°13' W 093°16'0 0.0
2017-Nov-02 19:58N 30°13' W 093°16'0 0.0
2017-Nov-02 19:28N 30°13' W 093°16'0 0.0
2017-Nov-02 18:58N 30°13' W 093°16'0 0.0
2017-Nov-02 18:28N 30°13' W 093°16'0 0.0
2017-Nov-02 17:55N 30°13' W 093°16'0 0.0
2017-Nov-02 17:28N 30°13' W 093°16'0 0.0
2017-Nov-02 16:58N 30°13' W 093°16'0 0.0
2017-Nov-02 16:28N 30°13' W 093°16'0 0.0
2017-Nov-02 15:58N 30°13' W 093°16'0 0.0
2017-Nov-02 15:28N 30°13' W 093°16'0 0.0
2017-Nov-02 14:58N 30°13' W 093°16'0 0.0
2017-Nov-02 14:25N 30°13' W 093°16'0 0.0
2017-Nov-02 13:58N 30°13' W 093°16'0 0.0
2017-Nov-02 13:28N 30°13' W 093°16'0 0.0
2017-Nov-02 12:58N 30°13' W 093°16'0 0.0
2017-Nov-02 12:28N 30°13' W 093°16'0 0.0
2017-Nov-02 11:58N 30°13' W 093°16'0 0.0
2017-Nov-02 11:28N 30°13' W 093°16'0 0.0
2017-Nov-02 10:55N 30°13' W 093°16'0 0.0
2017-Nov-02 10:28N 30°13' W 093°16'0 0.0
2017-Nov-02 09:58N 30°13' W 093°16'0 0.0
2017-Nov-02 09:28N 30°13' W 093°16'0 0.0
2017-Nov-02 08:58N 30°13' W 093°16'0 0.0
2017-Nov-02 08:28N 30°13' W 093°16'0 0.0
2017-Nov-02 07:58N 30°13' W 093°16'0 0.0
2017-Nov-02 07:28N 30°13' W 093°16'0 0.0
2017-Nov-02 06:58N 30°13' W 093°16'0 0.0
2017-Nov-02 06:28N 30°13' W 093°16'0 0.0
2017-Nov-02 05:58N 30°13' W 093°16'0 0.0
2017-Nov-02 05:28N 30°13' W 093°16'0 0.0
2017-Nov-02 04:58N 30°13' W 093°16'0 0.0
2017-Nov-02 04:28N 30°13' W 093°16'0 0.0
2017-Nov-02 03:58N 30°13' W 093°16'0 0.0
2017-Nov-02 03:28N 30°13' W 093°16'0 0.0
2017-Nov-02 02:58N 30°13' W 093°16'0 0.0
2017-Nov-02 02:28N 30°13' W 093°16'0 0.0
2017-Nov-02 01:58N 30°13' W 093°16'0 0.0
2017-Nov-02 01:28N 30°13' W 093°16'0 0.0
2017-Nov-02 00:58N 30°13' W 093°16'0 0.0
2017-Nov-02 00:28N 30°13' W 093°16'0 0.0
2017-Nov-01 23:58N 30°13' W 093°16'0 0.0
2017-Nov-01 23:28N 30°13' W 093°16'0 0.0
2017-Nov-01 22:58N 30°13' W 093°16'0 0.0
2017-Nov-01 22:28N 30°13' W 093°16'0 0.0
2017-Nov-01 21:58N 30°13' W 093°16'0 0.0
2017-Nov-01 21:28N 30°13' W 093°16'0 0.0
2017-Nov-01 20:55N 30°13' W 093°16'0 0.0
2017-Nov-01 20:28N 30°13' W 093°16'0 0.0
2017-Nov-01 19:58N 30°13' W 093°16'0 0.0
2017-Nov-01 19:28N 30°13' W 093°16'0 0.0
2017-Nov-01 18:58N 30°13' W 093°16'0 0.0
2017-Nov-01 18:28N 30°13' W 093°16'0 0.0
2017-Nov-01 01:58N 30°13' W 093°16'0 0.0
2017-Nov-01 01:28N 30°13' W 093°16'0 0.0
2017-Nov-01 00:58N 30°13' W 093°16'0 0.0
2017-Nov-01 00:28N 30°13' W 093°16'0 0.0
2017-Oct-31 23:58N 30°13' W 093°16'0 0.0
2017-Oct-31 23:25N 30°13' W 093°16'0 0.0
2017-Oct-31 22:58N 30°13' W 093°16'0 0.0
2017-Oct-31 22:28N 30°13' W 093°16'0 0.0
2017-Oct-31 21:58N 30°13' W 093°16'0 0.0
2017-Oct-31 21:28N 30°13' W 093°16'0 0.0
2017-Oct-31 20:58N 30°13' W 093°16'0 0.0
2017-Oct-31 20:28N 30°13' W 093°16'0 0.0
2017-Oct-31 19:58N 30°13' W 093°16'0 0.0
2017-Oct-31 19:28N 30°13' W 093°16'0 0.0
2017-Oct-31 18:58N 30°13' W 093°16'0 0.0
2017-Oct-31 18:28N 30°13' W 093°16'0 0.0
2017-Oct-31 17:58N 30°13' W 093°16'0 0.0
2017-Oct-31 17:28N 30°13' W 093°16'0 0.0
2017-Oct-31 16:58N 30°13' W 093°16'0 0.0
2017-Oct-31 16:28N 30°13' W 093°16'0 0.0
2017-Oct-31 15:58N 30°13' W 093°16'0 0.0
2017-Oct-31 15:28N 30°13' W 093°16'0 0.0
2017-Oct-31 14:58N 30°13' W 093°16'0 0.0
2017-Oct-31 14:28N 30°13' W 093°16'0 0.0
2017-Oct-31 13:58N 30°13' W 093°16'0 0.0
2017-Oct-31 13:28N 30°13' W 093°16'0 0.0
2017-Oct-31 12:58N 30°13' W 093°16'0 0.0
2017-Oct-31 12:28N 30°13' W 093°16'0 0.0
2017-Oct-31 11:58N 30°13' W 093°16'0 0.0
2017-Oct-31 11:28N 30°13' W 093°16'0 0.0
2017-Oct-31 10:58N 30°13' W 093°16'0 0.0
2017-Oct-31 10:28N 30°13' W 093°16'0 0.0
2017-Oct-31 09:58N 30°13' W 093°16'0 0.0
2017-Oct-31 09:22N 30°13' W 093°16'0 0.0
2017-Oct-31 08:58N 30°13' W 093°16'0 0.0
2017-Oct-31 08:28N 30°13' W 093°16'0 0.0
2017-Oct-31 07:52N 30°13' W 093°16'0 0.0
2017-Oct-31 07:28N 30°13' W 093°16'0 0.0
2017-Oct-31 06:58N 30°13' W 093°16'0 0.0
2017-Oct-31 06:28N 30°13' W 093°16'0 0.0
2017-Oct-31 05:58N 30°13' W 093°16'0 0.0
2017-Oct-31 05:28N 30°13' W 093°16'0 0.0
2017-Oct-31 04:58N 30°13' W 093°16'0 0.0
2017-Oct-31 04:28N 30°13' W 093°16'0 0.0
2017-Oct-31 03:58N 30°13' W 093°16'0 0.0
2017-Oct-31 03:28N 30°13' W 093°16'0 0.0
2017-Oct-31 02:58N 30°13' W 093°16'0 0.0
2017-Oct-31 02:22N 30°13' W 093°16'0 0.0
2017-Oct-31 01:55N 30°13' W 093°16'0 0.0
2017-Oct-31 01:28N 30°13' W 093°16'0 0.0
2017-Oct-31 00:58N 30°13' W 093°16'0 0.0
2017-Oct-31 00:28N 30°13' W 093°16'0 0.0
2017-Oct-30 23:58N 30°13' W 093°16'0 0.0
2017-Oct-30 23:28N 30°13' W 093°16'0 0.0
2017-Oct-30 22:58N 30°13' W 093°16'0 0.0
2017-Oct-30 22:28N 30°13' W 093°16'0 0.0
2017-Oct-30 21:58N 30°13' W 093°16'0 0.0
2017-Oct-30 21:28N 30°13' W 093°16'0 0.0
2017-Oct-30 20:58N 30°13' W 093°16'0 0.0
2017-Oct-30 20:28N 30°13' W 093°16'0 0.0
2017-Oct-30 19:58N 30°13' W 093°16'0 0.0
2017-Oct-30 19:25N 30°13' W 093°16'0 0.0
2017-Oct-30 18:58N 30°13' W 093°16'0 0.0
2017-Oct-30 18:28N 30°13' W 093°16'0 0.0
2017-Oct-30 17:58N 30°13' W 093°16'0 0.0
2017-Oct-30 17:28N 30°13' W 093°16'0 0.0
2017-Oct-30 16:55N 30°13' W 093°16'0 0.0
2017-Oct-30 16:28N 30°13' W 093°16'0 0.0
2017-Oct-30 15:58N 30°13' W 093°16'0 0.0
2017-Oct-30 15:28N 30°13' W 093°16'0 0.0
2017-Oct-30 14:58N 30°13' W 093°16'0 0.0
2017-Oct-30 14:25N 30°13' W 093°16'0 0.0
2017-Oct-30 13:25N 30°13' W 093°16'0 0.0
2017-Oct-30 12:58N 30°13' W 093°16'0 0.0
2017-Oct-30 12:25N 30°13' W 093°16'0 0.0
2017-Oct-30 11:58N 30°13' W 093°16'0 0.0
2017-Oct-30 11:25N 30°13' W 093°16'0 0.0
2017-Oct-30 10:58N 30°13' W 093°16'0 0.0
2017-Oct-30 10:28N 30°13' W 093°16'0 0.0
2017-Oct-30 09:58N 30°13' W 093°16'0 0.0
2017-Oct-30 09:25N 30°13' W 093°16'0 0.0
2017-Oct-30 08:58N 30°13' W 093°16'0 0.0
2017-Oct-30 08:28N 30°13' W 093°16'0 0.0
2017-Oct-30 07:55N 30°13' W 093°16'0 0.0
2017-Oct-30 07:28N 30°13' W 093°16'0 0.0
2017-Oct-30 06:58N 30°13' W 093°16'0 0.0
2017-Oct-30 06:28N 30°13' W 093°16'0 0.0
2017-Oct-30 05:58N 30°13' W 093°16'0 0.0
2017-Oct-30 05:28N 30°13' W 093°16'0 0.0
2017-Oct-30 04:58N 30°13' W 093°16'0 0.0
2017-Oct-30 04:28N 30°13' W 093°16'0 0.0
2017-Oct-30 03:58N 30°13' W 093°16'0 0.0
2017-Oct-30 03:28N 30°13' W 093°16'0 0.0
2017-Oct-30 02:58N 30°13' W 093°16'0 0.0
2017-Oct-30 02:28N 30°13' W 093°16'0 0.0
2017-Oct-30 01:58N 30°13' W 093°16'0 0.0
2017-Oct-30 01:28N 30°13' W 093°16'0 0.0
2017-Oct-30 00:58N 30°13' W 093°16'0 0.0
2017-Oct-30 00:28N 30°13' W 093°16'0 0.0
2017-Oct-29 23:58N 30°13' W 093°16'0 0.0
2017-Oct-29 23:28N 30°13' W 093°16'0 0.0
2017-Oct-29 22:58N 30°13' W 093°16'0 0.0
2017-Oct-29 22:28N 30°13' W 093°16'0 0.0
2017-Oct-29 21:58N 30°13' W 093°16'0 0.0
2017-Oct-29 21:25N 30°13' W 093°16'0 0.0
2017-Oct-29 20:58N 30°13' W 093°16'0 0.0
2017-Oct-29 20:28N 30°13' W 093°16'0 0.0
2017-Oct-29 19:58N 30°13' W 093°16'0 0.0
2017-Oct-29 19:28N 30°13' W 093°16'0 0.0
2017-Oct-29 18:58N 30°13' W 093°16'0 0.0
2017-Oct-29 18:28N 30°13' W 093°16'0 0.0
2017-Oct-29 17:58N 30°13' W 093°16'0 0.0
2017-Oct-29 17:25N 30°13' W 093°16'0 0.0
2017-Oct-29 16:58N 30°13' W 093°16'0 0.0
2017-Oct-29 16:28N 30°13' W 093°16'0 0.0
2017-Oct-29 15:58N 30°13' W 093°16'0 0.0
2017-Oct-29 15:28N 30°13' W 093°16'  

Dump ship's entire track history